Time;durP1;ratioP1;P1;durP2;ratioP2;P2;SDS_P1;SDS_P2;PMS_P1;PMS_P2;Temp;Humidity;BMP_temperature;BMP_pressure;BME280_temperature;BME280_humidity;BME280_pressure;Samples;Min_cycle;Max_cycle;Signal;HPM_P1;HPM_P2
2022/02/04 00:09:18;;;;;;;6.23;4.80;;;;;;;-3.84;74.18;99728.75;1708398;82;21038;-86
2022/02/04 00:23:12;;;;;;;10.67;7.40;;;;;;;-3.92;74.55;99731.80;1703584;82;21528;-82
2022/02/04 00:25:28;;;;;;;7.47;6.67;;;;;;;-3.93;74.55;99723.09;1681884;83;20977;-80
2022/02/04 00:27:44;;;;;;;9.27;6.80;;;;;;;-3.96;74.63;99718.17;1695357;83;21072;-77
2022/02/04 00:30:20;;;;;;;7.57;6.53;;;;;;;-3.97;74.74;99713.89;1695149;83;21028;-80
2022/02/04 00:32:42;;;;;;;8.30;6.47;;;;;;;-3.99;74.80;99718.48;1714857;83;22294;-83
2022/02/04 00:40:20;;;;;;;8.45;5.97;;;;;;;-3.97;75.11;99712.57;1701109;83;21013;-93
2022/02/04 00:42:46;;;;;;;9.20;6.67;;;;;;;-3.97;75.16;99719.14;1627131;86;21054;-78
2022/02/04 00:45:21;;;;;;;11.93;7.83;;;;;;;-3.96;75.24;99715.54;1676344;85;21660;-92
2022/02/04 00:47:47;;;;;;;8.20;6.20;;;;;;;-3.92;75.25;99708.98;1689985;83;21018;-83
2022/02/04 00:50:24;;;;;;;9.10;6.53;;;;;;;-3.92;75.19;99716.05;1702050;82;21069;-76
2022/02/04 00:52:48;;;;;;;8.67;6.50;;;;;;;-3.92;75.20;99715.55;1606523;86;21568;-87
2022/02/04 00:55:22;;;;;;;8.77;5.53;;;;;;;-3.90;75.32;99720.66;1642892;84;21012;-80
2022/02/04 00:57:55;;;;;;;10.93;7.43;;;;;;;-3.89;75.37;99723.14;1642248;87;21182;-80
2022/02/04 01:27:33;;;;;;;8.83;6.33;;;;;;;-3.86;75.55;99727.25;1720795;83;20943;-72
2022/02/04 01:30:14;;;;;;;8.33;7.43;;;;;;;-3.88;75.70;99725.28;1716266;82;21120;-71
2022/02/04 01:32:28;;;;;;;11.67;7.83;;;;;;;-3.90;75.72;99728.55;1694404;82;21067;-71
2022/02/04 01:34:55;;;;;;;9.67;7.10;;;;;;;-3.94;75.81;99728.53;1690611;83;21074;-76
2022/02/04 01:37:22;;;;;;;7.70;6.10;;;;;;;-3.94;75.93;99722.78;1701018;82;21926;-76
2022/02/04 01:39:49;;;;;;;8.30;7.03;;;;;;;-3.90;75.95;99719.34;1681265;83;21007;-78
2022/02/04 01:42:15;;;;;;;8.50;7.30;;;;;;;-3.92;75.98;99726.55;1626599;85;21079;-77
2022/02/04 01:44:42;;;;;;;7.07;5.80;;;;;;;-3.92;76.07;99726.06;1648108;85;21560;-76
2022/02/04 01:47:08;;;;;;;9.70;6.80;;;;;;;-3.92;76.04;99724.75;1655506;86;21557;-76
2022/02/04 01:49:36;;;;;;;8.63;6.00;;;;;;;-3.91;76.04;99729.52;1645748;85;21616;-71
2022/02/04 01:52:04;;;;;;;8.27;6.13;;;;;;;-3.89;76.12;99738.08;1676997;85;20937;-75
2022/02/04 01:54:31;;;;;;;11.33;6.80;;;;;;;-3.89;75.96;99728.39;1679776;83;21539;-77
2022/02/04 01:56:57;;;;;;;10.07;6.93;;;;;;;-3.88;75.98;99731.84;1721199;83;21077;-75
2022/02/04 01:59:23;;;;;;;7.43;5.80;;;;;;;-3.89;75.99;99732.34;1702045;83;21095;-74
2022/02/04 02:01:49;;;;;;;7.60;5.97;;;;;;;-3.92;76.01;99733.11;1693504;83;21502;-73
2022/02/04 02:04:17;;;;;;;8.53;5.60;;;;;;;-3.95;76.03;99732.95;1706124;82;21566;-71
2022/02/04 02:06:54;;;;;;;8.63;7.00;;;;;;;-3.94;76.03;99733.78;1712212;83;21570;-70
2022/02/04 02:09:18;;;;;;;6.83;5.37;;;;;;;-3.94;76.05;99736.41;1696604;83;21087;-77
2022/02/04 02:11:48;;;;;;;8.90;6.17;;;;;;;-3.93;76.05;99733.60;1696366;83;20993;-71
2022/02/04 02:14:15;;;;;;;10.23;6.73;;;;;;;-3.93;75.99;99732.80;1711120;83;21638;-72
2022/02/04 02:32:55;;;;;;;6.80;5.40;;;;;;;-3.93;75.96;99735.44;1729448;82;20939;-78
2022/02/04 02:36:28;;;;;;;9.40;6.73;;;;;;;-3.97;75.63;99744.09;1713391;82;21032;-74
2022/02/04 02:41:53;;;;;;;8.13;5.57;;;;;;;-3.92;75.48;99741.00;1716004;83;21922;-75
2022/02/04 02:54:04;;;;;;;7.93;5.70;;;;;;;-3.80;74.85;99752.41;1710811;83;21019;-78
2022/02/04 02:59:06;;;;;;;6.20;5.37;;;;;;;-3.75;74.60;99750.14;1709050;83;21519;-78
2022/02/04 03:01:29;;;;;;;9.83;5.63;;;;;;;-3.75;74.36;99759.83;1718149;82;21525;-70
2022/02/04 03:03:58;;;;;;;8.27;5.77;;;;;;;-3.76;74.23;99750.28;1668902;82;21045;-74
2022/02/04 03:06:24;;;;;;;6.67;5.20;;;;;;;-3.77;74.01;99759.97;1710542;82;22147;-72
2022/02/04 03:08:52;;;;;;;6.43;5.83;;;;;;;-3.79;73.87;99760.60;1674167;84;21021;-72
2022/02/04 03:11:19;;;;;;;9.07;5.37;;;;;;;-3.79;73.87;99761.12;1695283;84;21091;-75
2022/02/04 03:13:46;;;;;;;5.80;4.77;;;;;;;-3.78;73.76;99753.06;1726164;82;22003;-74
2022/02/04 03:16:17;;;;;;;5.23;4.67;;;;;;;-3.76;73.64;99760.31;1730489;82;20991;-73
2022/02/04 03:18:48;;;;;;;7.00;5.27;;;;;;;-3.78;73.57;99759.63;1701013;82;21098;-75
2022/02/04 03:21:14;;;;;;;7.00;5.30;;;;;;;-3.78;73.38;99756.17;1726684;82;21058;-73
2022/02/04 03:23:42;;;;;;;7.20;5.50;;;;;;;-3.77;73.41;99753.41;1664004;86;21093;-74
2022/02/04 03:26:14;;;;;;;6.10;4.63;;;;;;;-3.74;73.31;99758.33;1683204;84;20980;-73
2022/02/04 03:28:36;;;;;;;6.20;5.10;;;;;;;-3.78;73.03;99757.00;1692544;84;21024;-72
2022/02/04 03:31:04;;;;;;;6.17;5.53;;;;;;;-3.80;73.18;99751.09;1696068;84;21864;-73
2022/02/04 03:33:33;;;;;;;10.43;7.20;;;;;;;-3.80;73.20;99755.04;1707912;82;21507;-72
2022/02/04 03:36:02;;;;;;;10.90;5.53;;;;;;;-3.80;73.16;99761.61;1685810;84;43103;-73
2022/02/04 03:38:28;;;;;;;8.53;5.57;;;;;;;-3.82;73.08;99759.61;1718211;82;21027;-72
2022/02/04 03:40:55;;;;;;;8.07;5.77;;;;;;;-3.86;73.13;99751.72;1665680;86;21803;-74
2022/02/04 03:43:21;;;;;;;5.77;5.10;;;;;;;-3.86;73.29;99754.34;1714512;82;21538;-74
2022/02/04 03:45:47;;;;;;;6.67;5.60;;;;;;;-3.84;73.37;99751.56;1664096;86;21054;-74
2022/02/04 03:48:13;;;;;;;9.00;6.47;;;;;;;-3.83;73.34;99749.25;1672716;84;21563;-76
2022/02/04 03:50:40;;;;;;;7.93;6.20;;;;;;;-3.81;73.35;99749.93;1689933;84;21122;-73
2022/02/04 03:53:14;;;;;;;7.53;6.03;;;;;;;-3.76;73.44;99744.55;1699488;82;21073;-73
2022/02/04 03:55:41;;;;;;;7.37;5.30;;;;;;;-3.71;73.39;99755.90;1675650;84;21067;-74
2022/02/04 03:58:10;;;;;;;6.17;4.63;;;;;;;-3.68;73.27;99756.40;1666636;84;21022;-75
2022/02/04 04:00:36;;;;;;;6.60;5.83;;;;;;;-3.69;73.17;99757.37;1736213;82;21550;-75
2022/02/04 04:03:04;;;;;;;7.33;5.00;;;;;;;-3.74;73.15;99757.02;1701517;82;21065;-74
2022/02/04 04:05:32;;;;;;;7.90;6.20;;;;;;;-3.75;73.27;99756.70;1707685;83;21022;-76
2022/02/04 04:08:17;;;;;;;5.97;5.23;;;;;;;-3.75;73.34;99758.02;1699456;83;21022;-71
2022/02/04 04:10:45;;;;;;;7.47;5.73;;;;;;;-3.73;73.42;99767.04;1710776;82;21518;-73
2022/02/04 04:13:12;;;;;;;7.57;4.53;;;;;;;-3.71;73.46;99766.41;1725900;82;21110;-74
2022/02/04 04:15:40;;;;;;;8.23;6.67;;;;;;;-3.73;73.44;99773.61;1733895;81;20934;-72
2022/02/04 04:18:11;;;;;;;6.93;5.23;;;;;;;-3.75;73.46;99776.41;1702176;82;21032;-75
2022/02/04 04:20:37;;;;;;;7.40;5.83;;;;;;;-3.77;73.45;99769.66;1696635;82;21134;-71
2022/02/04 04:23:03;;;;;;;8.43;6.13;;;;;;;-3.79;73.44;99769.00;1719964;82;20971;-76
2022/02/04 04:25:30;;;;;;;7.07;5.37;;;;;;;-3.78;73.52;99768.83;1733713;81;21028;-72
2022/02/04 04:27:56;;;;;;;7.27;6.33;;;;;;;-3.79;73.38;99771.11;1734379;81;20987;-72
2022/02/04 04:30:23;;;;;;;5.73;5.20;;;;;;;-3.81;73.36;99770.95;1695099;83;20997;-74
2022/02/04 04:32:52;;;;;;;7.80;6.07;;;;;;;-3.84;73.42;99772.09;1701755;82;21101;-71
2022/02/04 04:35:19;;;;;;;7.43;5.40;;;;;;;-3.86;73.51;99771.42;1700333;83;21004;-71
2022/02/04 04:37:50;;;;;;;8.67;6.30;;;;;;;-3.81;73.58;99770.46;1700647;83;21100;-74
2022/02/04 04:40:33;;;;;;;7.80;6.50;;;;;;;-3.78;73.50;99769.31;1684721;82;21020;-71
2022/02/04 04:43:04;;;;;;;10.80;5.97;;;;;;;-3.77;73.47;99774.42;1702044;82;21009;-74
2022/02/04 05:29:19;;;;;;;9.43;6.03;;;;;;;-4.12;75.06;99810.80;1635633;86;21026;-74
2022/02/04 05:31:46;;;;;;;13.47;8.07;;;;;;;-4.18;75.31;99814.06;1702805;83;22124;-76
2022/02/04 05:34:19;;;;;;;7.77;6.67;;;;;;;-4.26;75.45;99807.41;1649623;86;21232;-74
2022/02/04 05:36:47;;;;;;;8.57;6.87;;;;;;;-4.33;75.70;99813.44;1652667;84;21026;-74
2022/02/04 05:39:23;;;;;;;9.67;7.17;;;;;;;-4.41;75.87;99802.36;1715586;83;21798;-74
2022/02/04 05:41:48;;;;;;;8.93;8.03;;;;;;;-4.52;76.21;99807.86;1646513;84;21129;-72
2022/02/04 05:44:14;;;;;;;7.97;6.00;;;;;;;-4.58;76.47;99805.84;1712700;83;21496;-73
2022/02/04 05:49:15;;;;;;;14.23;6.95;;;;;;;-4.62;76.76;99822.86;1691447;83;21493;-75
2022/02/04 05:51:57;;;;;;;9.10;6.30;;;;;;;-4.67;76.88;99825.10;1663757;85;21565;-73
2022/02/04 05:54:23;;;;;;;8.77;6.80;;;;;;;-4.68;77.03;99818.20;1703836;83;21090;-74
2022/02/04 06:07:08;;;;;;;8.03;6.10;;;;;;;-4.77;77.23;99826.97;1700565;83;21573;-73
2022/02/04 06:09:56;;;;;;;9.90;7.33;;;;;;;-4.81;77.45;99838.73;1700027;82;20990;-75
2022/02/04 06:12:34;;;;;;;10.03;7.23;;;;;;;-4.82;77.49;99839.70;1710680;81;21518;-75
2022/02/04 06:22:49;;;;;;;14.90;8.33;;;;;;;-4.88;77.78;99831.93;1666146;82;20981;-72
2022/02/04 06:25:14;;;;;;;12.10;7.57;;;;;;;-4.90;77.91;99833.89;1700877;83;21056;-74
2022/02/04 06:27:43;;;;;;;9.67;7.50;;;;;;;-4.91;77.99;99833.55;1706567;82;21084;-73
2022/02/04 06:30:10;;;;;;;8.23;6.40;;;;;;;-4.93;78.10;99832.86;1706398;83;21109;-74
2022/02/04 06:32:38;;;;;;;14.13;7.37;;;;;;;-4.93;78.18;99837.62;1699464;82;21021;-74
2022/02/04 06:35:07;;;;;;;11.47;7.67;;;;;;;-4.92;78.20;99836.66;1692470;83;21089;-75
2022/02/04 06:37:34;;;;;;;10.30;8.40;;;;;;;-4.88;78.27;99841.94;1700693;82;21027;-74
2022/02/04 06:40:02;;;;;;;8.10;6.70;;;;;;;-4.85;78.21;99840.35;1729915;81;21097;-74
2022/02/04 06:42:29;;;;;;;7.87;6.43;;;;;;;-4.85;78.20;99846.08;1734518;81;21587;-76
2022/02/04 06:44:57;;;;;;;12.70;8.30;;;;;;;-4.91;78.16;99837.48;1719616;82;21562;-73
2022/02/04 06:47:23;;;;;;;9.33;7.60;;;;;;;-4.95;78.31;99836.13;1701767;82;21021;-73
2022/02/04 06:49:51;;;;;;;9.67;7.53;;;;;;;-4.97;78.44;99831.02;1732162;82;21042;-73
2022/02/04 06:52:17;;;;;;;8.33;7.17;;;;;;;-4.98;78.51;99839.86;1730624;81;21049;-74
2022/02/04 06:54:43;;;;;;;17.67;10.07;;;;;;;-4.94;78.62;99835.16;1706463;82;21100;-74
2022/02/04 06:57:10;;;;;;;8.07;5.70;;;;;;;-4.88;78.70;99834.06;1706176;83;20961;-74
2022/02/04 06:59:38;;;;;;;7.90;5.97;;;;;;;-4.83;78.56;99837.56;1673922;83;21025;-73
2022/02/04 07:02:06;;;;;;;8.20;6.57;;;;;;;-4.81;78.53;99847.91;1716550;82;20943;-74
2022/02/04 07:04:35;;;;;;;8.37;6.80;;;;;;;-4.78;78.50;99843.19;1707826;82;21000;-71
2022/02/04 07:07:04;;;;;;;9.80;6.67;;;;;;;-4.75;78.40;99843.39;1733728;82;21167;-73
2022/02/04 07:09:46;;;;;;;10.87;6.87;;;;;;;-4.76;78.29;99843.88;1704575;82;20965;-72
2022/02/04 07:19:45;;;;;;;9.23;7.03;;;;;;;-4.74;78.52;99845.02;1701164;82;21406;-72
2022/02/04 07:20:00;;;;;;;9.90;7.47;;;;;;;-4.71;78.49;99832.94;1673632;83;21094;-71
2022/02/04 07:22:31;;;;;;;9.80;7.57;;;;;;;-4.69;78.48;99842.77;1716233;82;21234;-73
2022/02/04 07:24:59;;;;;;;10.37;7.80;;;;;;;-4.67;78.49;99836.42;1734212;82;20954;-71
2022/02/04 07:27:26;;;;;;;8.07;6.90;;;;;;;-4.62;78.52;99842.53;1733271;82;21049;-74
2022/02/04 07:29:54;;;;;;;10.33;7.57;;;;;;;-4.56;78.49;99834.91;1700686;83;21100;-74
2022/02/04 07:42:57;;;;;;;9.70;6.90;;;;;;;-4.17;77.98;99834.58;1704365;81;21013;-74
2022/02/04 07:45:24;;;;;;;8.77;6.40;;;;;;;-4.14;77.66;99837.72;1706315;82;21099;-73
2022/02/04 07:47:50;;;;;;;11.43;7.57;;;;;;;-4.06;77.63;99831.69;1686294;83;21084;-73
2022/02/04 07:50:22;;;;;;;9.70;6.83;;;;;;;-3.95;77.50;99830.14;1700768;83;21538;-72
2022/02/04 07:52:46;;;;;;;7.70;6.10;;;;;;;-3.87;77.09;99829.36;1717617;82;20992;-72
2022/02/04 07:55:12;;;;;;;12.13;7.57;;;;;;;-3.79;76.95;99829.43;1700812;84;21041;-76
2022/02/04 07:57:40;;;;;;;6.47;5.60;;;;;;;-3.70;76.71;99834.58;1709064;82;21126;-73
2022/02/04 08:00:09;;;;;;;9.60;6.73;;;;;;;-3.66;76.04;99835.92;1707806;82;20958;-75
2022/02/04 08:02:38;;;;;;;9.03;7.72;;;;;;;-3.62;75.71;99827.22;1709837;83;21154;-75
2022/02/04 08:05:07;;;;;;;12.03;7.03;;;;;;;-3.60;75.20;99819.50;1706356;83;21051;-72
2022/02/04 08:07:43;;;;;;;11.33;8.37;;;;;;;-3.56;75.18;99825.30;1693476;82;21066;-73
2022/02/04 08:10:10;;;;;;;8.97;6.43;;;;;;;-3.50;74.91;99818.08;1694215;82;21731;-73
2022/02/04 08:23:13;;;;;;;19.30;10.13;;;;;;;-3.21;73.31;99818.54;1663967;85;21520;-73
2022/02/04 08:28:44;;;;;;;7.47;6.73;;;;;;;-3.16;72.30;99822.00;1667085;84;21079;-73
2022/02/04 08:31:42;;;;;;;6.60;5.40;;;;;;;-3.15;71.86;99827.61;1673437;84;21612;-73
2022/02/04 08:33:57;;;;;;;7.93;6.60;;;;;;;-3.13;71.35;99830.42;1656614;84;21600;-70
2022/02/04 08:39:08;;;;;;;13.33;10.40;;;;;;;-3.07;71.00;99820.56;1673617;84;21018;-73
2022/02/04 08:46:58;;;;;;;8.50;6.40;;;;;;;-2.81;70.18;99815.70;1701000;83;21011;-76
2022/02/04 08:52:29;;;;;;;17.37;9.33;;;;;;;-2.65;69.34;99814.44;1617856;87;21105;-73
2022/02/04 08:54:50;;;;;;;9.80;6.97;;;;;;;-2.59;68.49;99827.45;1667057;85;20921;-74
2022/02/04 08:57:36;;;;;;;8.40;5.17;;;;;;;-2.57;67.54;99810.48;1666899;84;21041;-74
2022/02/04 09:00:10;;;;;;;8.73;4.70;;;;;;;-2.57;66.76;99817.07;1683424;84;21058;-79
2022/02/04 09:05:10;;;;;;;5.40;4.63;;;;;;;-2.52;65.81;99826.63;1687291;83;21019;-79
2022/02/04 09:08:14;;;;;;;5.67;4.97;;;;;;;-2.51;64.53;99823.01;1689769;84;21145;-78
2022/02/04 09:10:24;;;;;;;6.23;4.07;;;;;;;-2.49;64.24;99816.24;1656975;84;21070;-77
2022/02/04 09:21:10;;;;;;;6.10;4.67;;;;;;;-2.30;63.16;99837.00;1673607;84;21057;-77
2022/02/04 09:23:14;;;;;;;8.57;4.50;;;;;;;-2.32;63.12;99806.06;1643657;87;21049;-74
2022/02/04 09:25:41;;;;;;;5.27;4.33;;;;;;;-2.30;62.97;99811.97;1647464;87;21112;-74
2022/02/04 09:28:07;;;;;;;7.00;6.30;;;;;;;-2.28;62.63;99808.70;1687898;84;21242;-78
2022/02/04 09:30:35;;;;;;;4.90;4.17;;;;;;;-2.25;62.65;99817.08;1718134;82;21267;-79
2022/02/04 09:33:01;;;;;;;5.03;4.53;;;;;;;-2.23;61.76;99808.53;1687839;82;21032;-76
2022/02/04 09:35:28;;;;;;;5.07;4.57;;;;;;;-2.22;61.67;99810.19;1699514;82;21078;-75
2022/02/04 09:37:55;;;;;;;6.00;4.50;;;;;;;-2.17;62.06;99813.64;1703769;83;21551;-78
2022/02/04 09:40:22;;;;;;;5.07;3.97;;;;;;;-2.14;61.43;99808.03;1645567;85;22212;-75
2022/02/04 09:42:49;;;;;;;5.87;4.90;;;;;;;-2.10;60.83;99808.03;1704804;82;21486;-77
2022/02/04 09:45:19;;;;;;;5.33;4.67;;;;;;;-2.11;60.22;99821.39;1702764;84;20975;-82
2022/02/04 09:48:01;;;;;;;5.53;4.00;;;;;;;-2.08;60.21;99802.60;1712303;82;21104;-79
2022/02/04 09:50:30;;;;;;;6.23;4.97;;;;;;;-2.02;60.41;99802.77;1703905;84;21044;-80
2022/02/04 10:18:04;;;;;;;4.77;3.93;;;;;;;-1.84;57.91;99806.03;1700889;84;21156;-75
2022/02/04 10:20:33;;;;;;;6.43;3.90;;;;;;;-1.82;57.12;99802.72;1671606;83;21111;-77
2022/02/04 10:23:00;;;;;;;5.20;3.83;;;;;;;-1.83;57.71;99801.59;1680901;84;21537;-79
2022/02/04 10:25:34;;;;;;;5.10;3.47;;;;;;;-1.83;57.76;99793.19;1697378;84;21048;-78
2022/02/04 10:28:05;;;;;;;5.70;3.97;;;;;;;-1.80;56.88;99795.97;1699863;82;20946;-76
2022/02/04 10:30:32;;;;;;;7.90;6.30;;;;;;;-1.78;56.98;99814.59;1702050;84;20968;-79
2022/02/04 10:33:00;;;;;;;4.53;4.13;;;;;;;-1.74;57.11;99799.26;1701966;84;22128;-77
2022/02/04 10:35:34;;;;;;;6.30;3.90;;;;;;;-1.69;57.29;99796.12;1703730;82;21100;-77
2022/02/04 10:38:25;;;;;;;7.87;5.05;;;;;;;-1.66;57.11;99796.59;1706153;82;21073;-78
2022/02/04 10:40:57;;;;;;;8.17;4.73;;;;;;;-1.61;57.63;99786.86;1673305;85;21001;-76
2022/02/04 10:43:57;;;;;;;6.83;5.67;;;;;;;-1.47;58.01;99780.87;1679869;83;20995;-77
2022/02/04 10:49:14;;;;;;;12.57;7.63;;;;;;;-1.32;57.33;99789.23;1715779;82;20904;-76
2022/02/04 10:51:57;;;;;;;6.83;5.17;;;;;;;-1.39;56.75;99790.09;1721070;83;20982;-77
2022/02/04 10:54:47;;;;;;;6.40;4.97;;;;;;;-1.50;57.49;99778.59;1717374;82;21025;-74
2022/02/04 10:59:38;;;;;;;6.23;3.93;;;;;;;-1.45;58.12;99769.67;1706100;83;21137;-76
2022/02/04 11:04:35;;;;;;;5.30;4.30;;;;;;;-1.35;58.27;99782.16;1701910;83;21008;-77
2022/02/04 11:12:16;;;;;;;6.03;5.23;;;;;;;-1.18;57.96;99773.17;1683579;83;21087;-77
2022/02/04 11:31:24;;;;;;;9.00;5.70;;;;;;;-0.47;55.80;99741.69;1719532;82;21015;-77
2022/02/04 11:34:06;;;;;;;7.07;5.33;;;;;;;-0.43;56.02;99744.81;1701198;83;21540;-77
2022/02/04 11:54:35;;;;;;;5.97;4.23;;;;;;;-0.19;53.79;99741.44;1685979;84;21069;-79
2022/02/04 11:57:10;;;;;;;5.20;3.73;;;;;;;-0.27;52.88;99737.55;1700991;82;21054;-71
2022/02/04 11:59:46;;;;;;;5.13;4.60;;;;;;;-0.32;52.97;99749.16;1702032;82;21085;-79
2022/02/04 12:02:33;;;;;;;5.03;4.47;;;;;;;-0.26;53.19;99747.63;1684541;84;21072;-77
2022/02/04 12:05:21;;;;;;;7.07;5.20;;;;;;;-0.28;53.23;99739.86;1724389;82;21010;-80
2022/02/04 12:08:12;;;;;;;4.87;3.90;;;;;;;-0.25;53.52;99742.17;1707684;81;21166;-78
2022/02/04 12:10:46;;;;;;;5.40;3.90;;;;;;;-0.25;53.65;99743.49;1682554;85;21110;-76
2022/02/04 12:13:13;;;;;;;5.77;4.17;;;;;;;-0.15;53.32;99739.27;1697186;83;21075;-72
2022/02/04 12:15:49;;;;;;;5.83;5.07;;;;;;;-0.08;52.75;99744.97;1698428;83;21511;-75
2022/02/04 12:18:23;;;;;;;4.53;3.77;;;;;;;-0.11;52.61;99753.77;1695909;83;21051;-79
2022/02/04 12:20:54;;;;;;;9.75;4.83;;;;;;;-0.14;52.36;99744.36;1697545;84;21300;-71
2022/02/04 12:23:43;;;;;;;8.00;4.90;;;;;;;-0.12;52.62;99746.34;1697282;83;21163;-80
2022/02/04 12:26:16;;;;;;;5.77;4.57;;;;;;;-0.09;52.54;99746.46;1708104;83;20909;-78
2022/02/04 12:28:58;;;;;;;5.53;4.17;;;;;;;-0.06;52.58;99748.27;1697365;83;21045;-76
2022/02/04 12:31:32;;;;;;;5.30;3.98;;;;;;;-0.02;52.52;99749.55;1711195;83;27254;-75
2022/02/04 12:34:11;;;;;;;5.30;3.67;;;;;;;0.02;52.08;99744.71;1688832;84;21965;-75
2022/02/04 12:36:43;;;;;;;4.33;3.83;;;;;;;-0.04;50.71;99745.42;1688359;84;21137;-78
2022/02/04 12:39:20;;;;;;;5.80;4.90;;;;;;;-0.29;50.57;99750.64;1697173;83;20969;-76
2022/02/04 12:41:53;;;;;;;7.57;5.73;;;;;;;-0.43;51.54;99740.85;1701468;83;21034;-78
2022/02/04 12:44:30;;;;;;;6.42;4.30;;;;;;;-0.49;52.37;99748.98;1719800;82;21052;-88
2022/02/04 12:47:00;;;;;;;7.17;5.40;;;;;;;-0.43;52.16;99744.28;1693654;83;21142;-77
2022/02/04 12:49:29;;;;;;;8.03;5.20;;;;;;;-0.34;52.52;99748.53;1689996;84;20965;-81
2022/02/04 12:52:03;;;;;;;6.07;4.37;;;;;;;-0.23;52.46;99748.58;1701536;83;20997;-80
2022/02/04 13:03:08;;;;;;;4.97;4.20;;;;;;;0.10;51.67;99743.79;1690702;83;21165;-86
2022/02/04 13:11:09;;;;;;;6.57;4.07;;;;;;;-0.18;50.88;99740.94;1688701;84;21134;-84
2022/02/04 13:13:47;;;;;;;9.10;4.63;;;;;;;-0.19;50.91;99749.36;1718797;83;21027;-79
2022/02/04 13:16:27;;;;;;;5.60;3.27;;;;;;;-0.19;50.63;99741.96;1699723;83;20953;-75
2022/02/04 13:18:54;;;;;;;3.13;2.73;;;;;;;-0.10;50.65;99745.67;1704924;83;21583;-79
2022/02/04 13:21:21;;;;;;;3.57;3.03;;;;;;;-0.07;50.08;99744.47;1717721;82;20984;-84
2022/02/04 13:23:48;;;;;;;5.37;4.10;;;;;;;-0.18;49.80;99744.40;1671018;84;21320;-88
2022/02/04 13:26:16;;;;;;;5.03;3.77;;;;;;;-0.25;50.42;99752.73;1671989;84;21640;-89
2022/02/04 13:28:44;;;;;;;4.03;3.60;;;;;;;-0.27;50.21;99753.91;1712283;83;21026;-81
2022/02/04 13:31:20;;;;;;;4.07;3.30;;;;;;;-0.44;50.15;99745.31;1726352;83;21597;-82
2022/02/04 13:33:46;;;;;;;5.40;3.60;;;;;;;-0.46;50.64;99753.90;1715556;81;20977;-78
2022/02/04 13:36:40;;;;;;;7.07;4.43;;;;;;;-0.37;50.73;99755.47;1696871;83;21076;-78
2022/02/04 13:39:46;;;;;;;3.97;3.37;;;;;;;-0.27;51.01;99747.30;1704200;83;21186;-77
2022/02/04 13:44:44;;;;;;;4.73;3.50;;;;;;;-0.32;50.93;99754.44;1696962;83;21086;-73
2022/02/04 13:47:29;;;;;;;6.83;3.40;;;;;;;-0.40;50.90;99751.88;1698655;83;21050;-74
2022/02/04 13:53:12;;;;;;;7.10;4.33;;;;;;;-0.43;50.79;99760.13;1714419;82;21167;-81
2022/02/04 13:58:42;;;;;;;6.07;5.10;;;;;;;-0.47;51.18;99745.64;1669284;84;21028;-87
2022/02/04 14:03:42;;;;;;;6.20;4.10;;;;;;;-0.62;51.58;99764.58;1674572;84;21055;-77
2022/02/04 14:06:15;;;;;;;10.17;3.57;;;;;;;-0.65;51.89;99757.84;1697588;83;21150;-80
2022/02/04 14:09:06;;;;;;;4.47;3.73;;;;;;;-0.66;52.19;99760.64;1702471;83;20920;-83
2022/02/04 14:11:20;;;;;;;5.23;3.80;;;;;;;-0.68;52.24;99759.52;1651788;85;21039;-87
2022/02/04 14:13:52;;;;;;;4.10;3.42;;;;;;;-0.66;52.29;99760.15;1650240;85;21087;-88
2022/02/04 14:16:21;;;;;;;5.20;4.15;;;;;;;-0.68;52.20;99762.66;1631729;86;21048;-91
2022/02/04 14:18:48;;;;;;;4.13;3.47;;;;;;;-0.72;52.07;99762.16;1648042;86;21143;-88
2022/02/04 14:21:16;;;;;;;3.47;3.03;;;;;;;-0.77;52.12;99760.58;1639885;86;21065;-88
2022/02/04 14:23:48;;;;;;;4.00;3.53;;;;;;;-0.81;52.20;99756.62;1619092;87;20991;-90
2022/02/04 14:26:27;;;;;;;4.77;4.07;;;;;;;-0.84;52.25;99762.27;1617638;86;21026;-88
2022/02/04 14:28:56;;;;;;;5.47;4.07;;;;;;;-0.83;52.44;99766.55;1632295;86;21031;-79
2022/02/04 14:31:28;;;;;;;6.57;4.50;;;;;;;-0.82;52.57;99770.02;1641732;86;21557;-83
2022/02/04 14:36:47;;;;;;;7.57;4.27;;;;;;;-0.83;52.39;99776.29;1708325;83;20935;-82
2022/02/04 14:50:39;;;;;;;8.33;4.67;;;;;;;-1.00;52.50;99795.34;1712355;83;21050;-76
2022/02/04 15:01:01;;;;;;;6.30;5.60;;;;;;;-0.89;52.73;99789.19;1649421;85;21168;-83
2022/02/04 15:03:36;;;;;;;6.20;4.73;;;;;;;-0.91;52.65;99792.98;1649950;84;20974;-81
2022/02/04 15:06:02;;;;;;;8.10;7.03;;;;;;;-0.88;52.85;99796.61;1704353;83;20983;-72
2022/02/04 15:08:31;;;;;;;10.73;7.47;;;;;;;-0.86;52.71;99805.16;1652264;85;21037;-72
2022/02/04 15:10:59;;;;;;;11.43;7.03;;;;;;;-0.91;52.57;99806.17;1703257;82;21118;-78
2022/02/04 15:13:25;;;;;;;7.60;6.80;;;;;;;-0.98;52.73;99813.16;1732260;82;21706;-80
2022/02/04 15:15:52;;;;;;;9.13;5.23;;;;;;;-1.01;52.81;99802.96;1729006;82;21077;-75
2022/02/04 15:18:19;;;;;;;5.57;4.40;;;;;;;-1.01;52.90;99809.55;1733772;82;21017;-79
2022/02/04 15:20:45;;;;;;;4.47;3.63;;;;;;;-1.07;53.09;99809.75;1733340;82;20977;-82
2022/02/04 15:23:16;;;;;;;5.63;3.57;;;;;;;-1.15;53.32;99824.27;1734254;82;21072;-83
2022/02/04 15:25:43;;;;;;;11.27;4.33;;;;;;;-1.24;53.64;99817.38;1716670;81;21578;-79
2022/02/04 15:28:30;;;;;;;8.30;5.27;;;;;;;-1.29;53.91;99818.92;1700376;83;21101;-78
2022/02/04 15:30:44;;;;;;;5.47;4.47;;;;;;;-1.28;54.14;99822.69;1713827;82;21024;-75
2022/02/04 15:33:09;;;;;;;8.67;5.37;;;;;;;-1.23;54.42;99819.53;1713869;82;21074;-78
2022/02/04 15:35:38;;;;;;;9.50;5.97;;;;;;;-1.22;54.63;99815.41;1731241;81;21251;-78
2022/02/04 15:38:04;;;;;;;6.60;5.20;;;;;;;-1.25;54.83;99810.98;1673522;85;21003;-75
2022/02/04 15:40:32;;;;;;;8.57;6.20;;;;;;;-1.32;55.08;99814.79;1725078;82;21049;-76
2022/02/04 15:43:02;;;;;;;8.43;5.77;;;;;;;-1.39;55.46;99817.80;1731711;82;21037;-75
2022/02/04 15:53:27;;;;;;;9.13;6.77;;;;;;;-1.62;56.15;99817.67;1730982;82;20970;-81
2022/02/04 15:58:51;;;;;;;17.43;10.57;;;;;;;-1.73;56.35;99830.41;1700949;82;21557;-83
2022/02/04 16:03:51;;;;;;;12.87;8.43;;;;;;;-1.80;56.70;99835.02;1701350;83;21817;-76
2022/02/04 16:06:14;;;;;;;12.50;7.97;;;;;;;-1.83;56.83;99823.50;1724301;82;21109;-74
2022/02/04 16:08:39;;;;;;;13.40;9.03;;;;;;;-1.84;56.94;99824.48;1690450;81;21034;-74
2022/02/04 16:11:29;;;;;;;10.37;6.83;;;;;;;-1.84;57.03;99821.84;1706637;83;21031;-75
2022/02/04 16:13:54;;;;;;;9.40;6.77;;;;;;;-1.84;57.10;99827.13;1702620;83;21144;-74
2022/02/04 16:18:57;;;;;;;10.20;7.27;;;;;;;-1.81;57.08;99832.54;1703689;82;21241;-78
2022/02/04 16:21:21;;;;;;;9.60;7.17;;;;;;;-1.77;57.08;99826.77;1703153;83;21067;-81
2022/02/04 16:28:59;;;;;;;12.93;8.43;;;;;;;-1.78;57.08;99825.63;1726795;81;21012;-73
2022/02/04 16:31:26;;;;;;;15.87;11.63;;;;;;;-1.80;57.22;99823.64;1702017;83;21015;-70
2022/02/04 16:33:52;;;;;;;26.23;16.27;;;;;;;-1.84;57.26;99828.93;1721554;82;21559;-71
2022/02/04 16:36:22;;;;;;;27.00;16.87;;;;;;;-1.90;57.57;99833.05;1732156;82;21085;-68
2022/02/04 16:38:53;;;;;;;21.90;15.70;;;;;;;-1.89;57.94;99828.11;1713202;83;21182;-72
2022/02/04 16:41:24;;;;;;;30.50;17.20;;;;;;;-1.88;58.22;99835.53;1673519;85;21090;-84
2022/02/04 16:43:47;;;;;;;18.30;12.37;;;;;;;-1.89;58.43;99833.87;1691817;82;21013;-82
2022/02/04 16:46:13;;;;;;;33.80;20.17;;;;;;;-1.94;58.48;99834.86;1708092;82;21342;-89
2022/02/04 16:48:42;;;;;;;47.53;23.30;;;;;;;-2.01;58.54;99840.45;1724121;82;21062;-94
2022/02/04 16:51:10;;;;;;;25.30;18.83;;;;;;;-2.03;58.86;99844.59;1701892;82;21154;-88
2022/02/04 16:53:37;;;;;;;18.77;10.43;;;;;;;-1.95;58.86;99839.80;1702730;82;20988;-71
2022/02/04 16:56:04;;;;;;;8.47;6.50;;;;;;;-1.85;58.82;99845.23;1701062;82;20957;-73
2022/02/04 16:58:31;;;;;;;9.23;6.57;;;;;;;-1.67;58.56;99849.48;1684999;82;21032;-78
2022/02/04 17:00:58;;;;;;;8.93;7.37;;;;;;;-1.58;57.91;99847.98;1708508;82;21042;-70
2022/02/04 17:03:25;;;;;;;9.77;6.83;;;;;;;-1.60;57.51;99847.84;1701937;82;21130;-78
2022/02/04 17:05:54;;;;;;;10.57;7.60;;;;;;;-1.60;57.50;99839.44;1703594;82;20947;-87
2022/02/04 17:08:35;;;;;;;10.58;7.10;;;;;;;-1.53;57.54;99846.16;1692051;83;20940;-82
2022/02/04 17:11:12;;;;;;;10.10;7.33;;;;;;;-1.45;57.30;99846.98;1696912;83;21076;-74
2022/02/04 17:13:36;;;;;;;10.43;6.23;;;;;;;-1.38;57.18;99844.48;1696423;83;21177;-77
2022/02/04 17:16:02;;;;;;;18.43;11.40;;;;;;;-1.31;57.03;99846.78;1717123;82;21108;-77
2022/02/04 17:18:29;;;;;;;26.20;12.07;;;;;;;-1.26;56.72;99839.18;1669046;83;21527;-81
2022/02/04 17:20:57;;;;;;;42.67;22.97;;;;;;;-1.26;56.64;99836.54;1682836;84;21052;-74
2022/02/04 17:23:30;;;;;;;44.27;22.77;;;;;;;-1.28;56.62;99842.47;1676841;83;21536;-74
2022/02/04 17:25:57;;;;;;;39.73;22.57;;;;;;;-1.33;56.75;99837.70;1717907;83;21014;-75